Kenova, West Virginia
Current Conditions -  °F | °C
As of 2:51 AM on Tuesday 21 Oct 2014 (Local Time) from KHTS Reporting Station
Overcast Overcast  
Wind Chill: 50°   Ceiling: 3800
Heat Index: 50°   Visibility: 10mi
Dew Point: 49°   Wind: 3mph
Humidity: 96%   Direction: 230°SW
Pressure: 29.92"   Gusts: NA
Location:  38.4°N, 82.58°W
Report Text: KHTS 210651Z 23003KT 10SM SCT029 BKN038 OVC075 10/09 A2992 RMK AO2 SLP130 T01000094
Loading
Personal Weather Stations






























Interactive Weather Map
Tropical Storm Tracking
New forecast layout! Learn more

10-Day Weather Forecast

Advertisements
Track Severe Weather on mobile